sensor_id;sensor_type;location;lat;lon;timestamp;P1;durP1;ratioP1;P2;durP2;ratioP2
12725;SDS011;6427;49.754;6.106;2023-09-08T00:01:33;7.80;;;7.00;;
12725;SDS011;6427;49.754;6.106;2023-09-08T00:04:01;9.40;;;7.30;;
12725;SDS011;6427;49.754;6.106;2023-09-08T00:06:29;8.85;;;7.95;;
12725;SDS011;6427;49.754;6.106;2023-09-08T00:08:57;9.17;;;7.17;;
12725;SDS011;6427;49.754;6.106;2023-09-08T00:11:25;8.33;;;7.10;;
12725;SDS011;6427;49.754;6.106;2023-09-08T00:13:53;9.37;;;7.90;;
12725;SDS011;6427;49.754;6.106;2023-09-08T00:16:21;9.20;;;7.17;;
12725;SDS011;6427;49.754;6.106;2023-09-08T00:18:49;8.33;;;7.37;;
12725;SDS011;6427;49.754;6.106;2023-09-08T00:21:17;8.50;;;7.13;;
12725;SDS011;6427;49.754;6.106;2023-09-08T00:23:45;11.60;;;7.37;;
12725;SDS011;6427;49.754;6.106;2023-09-08T00:26:12;9.13;;;8.20;;
12725;SDS011;6427;49.754;6.106;2023-09-08T00:28:40;9.57;;;7.03;;
12725;SDS011;6427;49.754;6.106;2023-09-08T00:31:08;9.27;;;6.73;;
12725;SDS011;6427;49.754;6.106;2023-09-08T00:33:36;8.60;;;6.80;;
12725;SDS011;6427;49.754;6.106;2023-09-08T00:36:04;9.60;;;8.13;;
12725;SDS011;6427;49.754;6.106;2023-09-08T00:38:31;8.80;;;6.90;;
12725;SDS011;6427;49.754;6.106;2023-09-08T00:40:59;9.43;;;6.60;;
12725;SDS011;6427;49.754;6.106;2023-09-08T00:43:26;9.30;;;7.40;;
12725;SDS011;6427;49.754;6.106;2023-09-08T00:45:55;9.77;;;8.45;;
12725;SDS011;6427;49.754;6.106;2023-09-08T00:48:22;9.67;;;7.33;;
12725;SDS011;6427;49.754;6.106;2023-09-08T00:50:50;7.70;;;6.87;;
12725;SDS011;6427;49.754;6.106;2023-09-08T00:53:18;10.37;;;7.90;;
12725;SDS011;6427;49.754;6.106;2023-09-08T00:55:45;8.83;;;6.97;;
12725;SDS011;6427;49.754;6.106;2023-09-08T00:58:13;8.30;;;7.07;;
12725;SDS011;6427;49.754;6.106;2023-09-08T01:00:40;9.17;;;7.27;;
12725;SDS011;6427;49.754;6.106;2023-09-08T01:03:08;11.47;;;7.60;;
12725;SDS011;6427;49.754;6.106;2023-09-08T01:05:36;8.90;;;6.33;;
12725;SDS011;6427;49.754;6.106;2023-09-08T01:08:03;9.73;;;8.43;;
12725;SDS011;6427;49.754;6.106;2023-09-08T01:10:31;9.82;;;8.48;;
12725;SDS011;6427;49.754;6.106;2023-09-08T01:12:58;11.03;;;7.50;;
12725;SDS011;6427;49.754;6.106;2023-09-08T01:15:26;9.17;;;7.63;;
12725;SDS011;6427;49.754;6.106;2023-09-08T01:17:54;9.98;;;7.85;;
12725;SDS011;6427;49.754;6.106;2023-09-08T01:20:27;10.60;;;7.83;;
12725;SDS011;6427;49.754;6.106;2023-09-08T01:23:01;10.17;;;7.20;;
12725;SDS011;6427;49.754;6.106;2023-09-08T01:25:25;13.23;;;7.47;;
12725;SDS011;6427;49.754;6.106;2023-09-08T01:27:53;8.90;;;7.33;;
12725;SDS011;6427;49.754;6.106;2023-09-08T01:30:21;11.43;;;7.53;;
12725;SDS011;6427;49.754;6.106;2023-09-08T01:32:49;12.45;;;8.82;;
12725;SDS011;6427;49.754;6.106;2023-09-08T01:35:16;11.03;;;8.10;;
12725;SDS011;6427;49.754;6.106;2023-09-08T01:37:44;11.83;;;8.77;;
12725;SDS011;6427;49.754;6.106;2023-09-08T01:40:12;10.43;;;8.30;;
12725;SDS011;6427;49.754;6.106;2023-09-08T01:42:40;11.37;;;8.47;;
12725;SDS011;6427;49.754;6.106;2023-09-08T01:45:07;12.60;;;8.17;;
12725;SDS011;6427;49.754;6.106;2023-09-08T01:47:35;10.90;;;8.80;;
12725;SDS011;6427;49.754;6.106;2023-09-08T01:50:03;10.37;;;8.07;;
12725;SDS011;6427;49.754;6.106;2023-09-08T01:52:30;9.20;;;7.50;;
12725;SDS011;6427;49.754;6.106;2023-09-08T01:54:58;11.33;;;8.00;;
12725;SDS011;6427;49.754;6.106;2023-09-08T01:57:25;8.90;;;7.77;;
12725;SDS011;6427;49.754;6.106;2023-09-08T01:59:54;11.25;;;9.50;;
12725;SDS011;6427;49.754;6.106;2023-09-08T02:02:21;11.30;;;7.90;;
12725;SDS011;6427;49.754;6.106;2023-09-08T02:04:49;12.03;;;8.03;;
12725;SDS011;6427;49.754;6.106;2023-09-08T02:07:17;10.03;;;7.50;;
12725;SDS011;6427;49.754;6.106;2023-09-08T02:09:44;9.20;;;7.67;;
12725;SDS011;6427;49.754;6.106;2023-09-08T02:12:12;10.90;;;7.97;;
12725;SDS011;6427;49.754;6.106;2023-09-08T02:14:40;9.57;;;8.07;;
12725;SDS011;6427;49.754;6.106;2023-09-08T02:17:08;9.30;;;7.87;;
12725;SDS011;6427;49.754;6.106;2023-09-08T02:19:36;10.85;;;9.50;;
12725;SDS011;6427;49.754;6.106;2023-09-08T02:22:04;8.60;;;7.70;;
12725;SDS011;6427;49.754;6.106;2023-09-08T02:24:31;10.75;;;9.65;;
12725;SDS011;6427;49.754;6.106;2023-09-08T02:27:00;12.48;;;10.52;;
12725;SDS011;6427;49.754;6.106;2023-09-08T02:29:27;9.33;;;8.40;;
12725;SDS011;6427;49.754;6.106;2023-09-08T02:31:55;10.27;;;8.63;;
12725;SDS011;6427;49.754;6.106;2023-09-08T02:34:22;10.83;;;8.43;;
12725;SDS011;6427;49.754;6.106;2023-09-08T02:36:50;10.23;;;8.63;;
12725;SDS011;6427;49.754;6.106;2023-09-08T02:39:18;9.83;;;7.60;;
12725;SDS011;6427;49.754;6.106;2023-09-08T02:41:46;9.97;;;7.97;;
12725;SDS011;6427;49.754;6.106;2023-09-08T02:44:14;10.73;;;8.57;;
12725;SDS011;6427;49.754;6.106;2023-09-08T02:46:42;11.17;;;7.53;;
12725;SDS011;6427;49.754;6.106;2023-09-08T02:49:10;10.63;;;8.20;;
12725;SDS011;6427;49.754;6.106;2023-09-08T02:51:37;8.90;;;7.73;;
12725;SDS011;6427;49.754;6.106;2023-09-08T02:54:05;8.37;;;7.47;;
12725;SDS011;6427;49.754;6.106;2023-09-08T02:56:33;13.53;;;7.60;;
12725;SDS011;6427;49.754;6.106;2023-09-08T02:59:01;10.60;;;7.73;;
12725;SDS011;6427;49.754;6.106;2023-09-08T03:01:29;9.47;;;8.13;;
12725;SDS011;6427;49.754;6.106;2023-09-08T03:03:57;10.10;;;8.40;;
12725;SDS011;6427;49.754;6.106;2023-09-08T03:06:25;8.83;;;8.00;;
12725;SDS011;6427;49.754;6.106;2023-09-08T03:08:53;11.07;;;6.93;;
12725;SDS011;6427;49.754;6.106;2023-09-08T03:11:21;10.10;;;8.07;;
12725;SDS011;6427;49.754;6.106;2023-09-08T03:13:49;8.97;;;7.63;;
12725;SDS011;6427;49.754;6.106;2023-09-08T03:16:17;10.00;;;7.23;;
12725;SDS011;6427;49.754;6.106;2023-09-08T03:18:44;9.40;;;7.00;;
12725;SDS011;6427;49.754;6.106;2023-09-08T03:21:13;9.60;;;7.87;;
12725;SDS011;6427;49.754;6.106;2023-09-08T03:23:41;8.67;;;7.47;;
12725;SDS011;6427;49.754;6.106;2023-09-08T03:26:08;10.03;;;8.47;;
12725;SDS011;6427;49.754;6.106;2023-09-08T03:28:37;10.17;;;7.30;;
12725;SDS011;6427;49.754;6.106;2023-09-08T03:31:04;8.47;;;7.40;;
12725;SDS011;6427;49.754;6.106;2023-09-08T03:33:32;10.57;;;8.07;;
12725;SDS011;6427;49.754;6.106;2023-09-08T03:35:59;12.13;;;7.40;;
12725;SDS011;6427;49.754;6.106;2023-09-08T03:38:27;8.60;;;7.70;;
12725;SDS011;6427;49.754;6.106;2023-09-08T03:40:54;11.60;;;8.33;;
12725;SDS011;6427;49.754;6.106;2023-09-08T03:43:23;10.20;;;9.13;;
12725;SDS011;6427;49.754;6.106;2023-09-08T03:45:50;9.43;;;8.20;;
12725;SDS011;6427;49.754;6.106;2023-09-08T03:48:18;8.93;;;7.83;;
12725;SDS011;6427;49.754;6.106;2023-09-08T03:50:46;9.80;;;7.40;;
12725;SDS011;6427;49.754;6.106;2023-09-08T03:53:13;9.57;;;7.60;;
12725;SDS011;6427;49.754;6.106;2023-09-08T03:55:41;10.02;;;8.82;;
12725;SDS011;6427;49.754;6.106;2023-09-08T03:58:08;9.97;;;8.20;;
12725;SDS011;6427;49.754;6.106;2023-09-08T04:00:36;11.37;;;7.93;;
12725;SDS011;6427;49.754;6.106;2023-09-08T04:03:03;11.70;;;8.00;;
12725;SDS011;6427;49.754;6.106;2023-09-08T04:05:31;8.70;;;7.60;;
12725;SDS011;6427;49.754;6.106;2023-09-08T04:07:59;12.47;;;7.23;;
12725;SDS011;6427;49.754;6.106;2023-09-08T04:10:26;14.97;;;8.00;;
12725;SDS011;6427;49.754;6.106;2023-09-08T04:12:54;13.00;;;8.03;;
12725;SDS011;6427;49.754;6.106;2023-09-08T04:15:23;15.63;;;7.67;;
12725;SDS011;6427;49.754;6.106;2023-09-08T04:17:52;11.97;;;6.70;;
12725;SDS011;6427;49.754;6.106;2023-09-08T04:20:20;13.35;;;8.38;;
12725;SDS011;6427;49.754;6.106;2023-09-08T04:22:48;9.07;;;7.50;;
12725;SDS011;6427;49.754;6.106;2023-09-08T04:25:16;8.70;;;7.30;;
12725;SDS011;6427;49.754;6.106;2023-09-08T04:27:44;11.00;;;7.03;;
12725;SDS011;6427;49.754;6.106;2023-09-08T04:30:12;11.30;;;7.37;;
12725;SDS011;6427;49.754;6.106;2023-09-08T04:32:39;13.53;;;6.87;;
12725;SDS011;6427;49.754;6.106;2023-09-08T04:35:07;14.17;;;7.10;;
12725;SDS011;6427;49.754;6.106;2023-09-08T04:37:35;15.80;;;7.57;;
12725;SDS011;6427;49.754;6.106;2023-09-08T04:40:03;10.38;;;8.65;;
12725;SDS011;6427;49.754;6.106;2023-09-08T04:42:31;10.10;;;7.60;;
12725;SDS011;6427;49.754;6.106;2023-09-08T04:44:58;16.10;;;7.60;;
12725;SDS011;6427;49.754;6.106;2023-09-08T04:47:27;11.20;;;7.13;;
12725;SDS011;6427;49.754;6.106;2023-09-08T04:49:54;14.67;;;6.97;;
12725;SDS011;6427;49.754;6.106;2023-09-08T04:52:22;9.90;;;7.70;;
12725;SDS011;6427;49.754;6.106;2023-09-08T04:54:50;12.88;;;8.43;;
12725;SDS011;6427;49.754;6.106;2023-09-08T04:57:17;14.83;;;7.67;;
12725;SDS011;6427;49.754;6.106;2023-09-08T04:59:45;9.00;;;6.80;;
12725;SDS011;6427;49.754;6.106;2023-09-08T05:02:12;12.10;;;7.93;;
12725;SDS011;6427;49.754;6.106;2023-09-08T05:04:40;12.97;;;7.90;;
12725;SDS011;6427;49.754;6.106;2023-09-08T05:07:08;11.07;;;7.50;;
12725;SDS011;6427;49.754;6.106;2023-09-08T05:09:36;10.47;;;7.33;;
12725;SDS011;6427;49.754;6.106;2023-09-08T05:12:04;10.63;;;7.20;;
12725;SDS011;6427;49.754;6.106;2023-09-08T05:14:32;14.70;;;8.23;;
12725;SDS011;6427;49.754;6.106;2023-09-08T05:17:00;12.00;;;8.50;;
12725;SDS011;6427;49.754;6.106;2023-09-08T05:19:35;11.53;;;8.63;;
12725;SDS011;6427;49.754;6.106;2023-09-08T05:22:04;9.47;;;8.00;;
12725;SDS011;6427;49.754;6.106;2023-09-08T05:24:38;13.20;;;9.75;;
12725;SDS011;6427;49.754;6.106;2023-09-08T05:27:07;11.13;;;9.27;;
12725;SDS011;6427;49.754;6.106;2023-09-08T05:29:33;11.63;;;8.50;;
12725;SDS011;6427;49.754;6.106;2023-09-08T05:32:07;10.43;;;8.20;;
12725;SDS011;6427;49.754;6.106;2023-09-08T05:34:38;11.50;;;8.37;;
12725;SDS011;6427;49.754;6.106;2023-09-08T05:37:08;14.17;;;8.07;;
12725;SDS011;6427;49.754;6.106;2023-09-08T05:39:37;10.83;;;8.10;;
12725;SDS011;6427;49.754;6.106;2023-09-08T05:42:09;13.83;;;8.90;;
12725;SDS011;6427;49.754;6.106;2023-09-08T05:44:45;11.30;;;9.27;;
12725;SDS011;6427;49.754;6.106;2023-09-08T05:47:14;15.33;;;8.40;;
12725;SDS011;6427;49.754;6.106;2023-09-08T05:49:49;12.70;;;8.67;;
12725;SDS011;6427;49.754;6.106;2023-09-08T05:52:20;13.93;;;8.97;;
12725;SDS011;6427;49.754;6.106;2023-09-08T05:54:50;14.13;;;9.07;;
12725;SDS011;6427;49.754;6.106;2023-09-08T05:57:21;12.53;;;9.73;;
12725;SDS011;6427;49.754;6.106;2023-09-08T05:59:51;15.82;;;11.40;;
12725;SDS011;6427;49.754;6.106;2023-09-08T06:02:23;12.60;;;9.57;;
12725;SDS011;6427;49.754;6.106;2023-09-08T06:04:48;14.70;;;9.43;;
12725;SDS011;6427;49.754;6.106;2023-09-08T06:07:16;12.77;;;9.53;;
12725;SDS011;6427;49.754;6.106;2023-09-08T06:09:46;10.67;;;9.03;;
12725;SDS011;6427;49.754;6.106;2023-09-08T06:12:14;10.83;;;8.60;;
12725;SDS011;6427;49.754;6.106;2023-09-08T06:14:42;15.17;;;9.47;;
12725;SDS011;6427;49.754;6.106;2023-09-08T06:17:10;12.53;;;9.67;;
12725;SDS011;6427;49.754;6.106;2023-09-08T06:19:38;12.13;;;8.87;;
12725;SDS011;6427;49.754;6.106;2023-09-08T06:22:08;14.87;;;8.83;;
12725;SDS011;6427;49.754;6.106;2023-09-08T06:24:38;12.67;;;9.20;;
12725;SDS011;6427;49.754;6.106;2023-09-08T06:27:06;12.37;;;8.83;;
12725;SDS011;6427;49.754;6.106;2023-09-08T06:29:36;13.90;;;8.57;;
12725;SDS011;6427;49.754;6.106;2023-09-08T06:32:04;12.67;;;10.17;;
12725;SDS011;6427;49.754;6.106;2023-09-08T06:34:36;12.67;;;10.33;;
12725;SDS011;6427;49.754;6.106;2023-09-08T06:37:01;15.97;;;10.87;;
12725;SDS011;6427;49.754;6.106;2023-09-08T06:39:29;14.37;;;10.93;;
12725;SDS011;6427;49.754;6.106;2023-09-08T06:41:57;13.10;;;10.47;;
12725;SDS011;6427;49.754;6.106;2023-09-08T06:44:25;15.67;;;10.70;;
12725;SDS011;6427;49.754;6.106;2023-09-08T06:46:53;13.83;;;10.57;;
12725;SDS011;6427;49.754;6.106;2023-09-08T06:49:22;16.97;;;10.23;;
12725;SDS011;6427;49.754;6.106;2023-09-08T06:51:50;18.97;;;10.93;;
12725;SDS011;6427;49.754;6.106;2023-09-08T06:54:20;15.97;;;10.73;;
12725;SDS011;6427;49.754;6.106;2023-09-08T06:56:50;14.93;;;10.37;;
12725;SDS011;6427;49.754;6.106;2023-09-08T06:59:22;15.13;;;10.67;;
12725;SDS011;6427;49.754;6.106;2023-09-08T07:01:52;16.07;;;9.53;;
12725;SDS011;6427;49.754;6.106;2023-09-08T07:04:22;14.83;;;9.53;;
12725;SDS011;6427;49.754;6.106;2023-09-08T07:06:50;12.07;;;9.60;;
12725;SDS011;6427;49.754;6.106;2023-09-08T07:09:21;12.50;;;9.83;;
12725;SDS011;6427;49.754;6.106;2023-09-08T07:11:49;10.23;;;9.07;;
12725;SDS011;6427;49.754;6.106;2023-09-08T07:14:20;13.63;;;9.87;;
12725;SDS011;6427;49.754;6.106;2023-09-08T07:16:54;10.63;;;9.03;;
12725;SDS011;6427;49.754;6.106;2023-09-08T07:19:26;15.77;;;9.07;;
12725;SDS011;6427;49.754;6.106;2023-09-08T07:21:55;14.43;;;10.37;;
12725;SDS011;6427;49.754;6.106;2023-09-08T07:24:23;18.97;;;12.10;;
12725;SDS011;6427;49.754;6.106;2023-09-08T07:26:51;11.93;;;9.27;;
12725;SDS011;6427;49.754;6.106;2023-09-08T07:29:19;12.83;;;8.93;;
12725;SDS011;6427;49.754;6.106;2023-09-08T07:31:48;10.47;;;8.60;;
12725;SDS011;6427;49.754;6.106;2023-09-08T07:34:19;12.80;;;8.80;;
12725;SDS011;6427;49.754;6.106;2023-09-08T07:36:48;12.80;;;8.87;;
12725;SDS011;6427;49.754;6.106;2023-09-08T07:39:18;12.47;;;8.90;;
12725;SDS011;6427;49.754;6.106;2023-09-08T07:41:46;11.90;;;8.80;;
12725;SDS011;6427;49.754;6.106;2023-09-08T07:44:17;11.73;;;8.80;;
12725;SDS011;6427;49.754;6.106;2023-09-08T07:46:45;13.77;;;8.87;;
12725;SDS011;6427;49.754;6.106;2023-09-08T07:49:14;10.27;;;9.17;;
12725;SDS011;6427;49.754;6.106;2023-09-08T07:51:49;9.70;;;7.90;;
12725;SDS011;6427;49.754;6.106;2023-09-08T07:54:15;10.60;;;7.90;;
12725;SDS011;6427;49.754;6.106;2023-09-08T07:56:48;11.80;;;8.03;;
12725;SDS011;6427;49.754;6.106;2023-09-08T07:59:19;12.37;;;8.00;;
12725;SDS011;6427;49.754;6.106;2023-09-08T08:02:00;15.30;;;7.40;;
12725;SDS011;6427;49.754;6.106;2023-09-08T08:04:29;9.83;;;7.93;;
12725;SDS011;6427;49.754;6.106;2023-09-08T08:06:59;11.90;;;8.47;;
12725;SDS011;6427;49.754;6.106;2023-09-08T08:09:27;10.47;;;7.20;;
12725;SDS011;6427;49.754;6.106;2023-09-08T08:12:00;10.30;;;7.70;;
12725;SDS011;6427;49.754;6.106;2023-09-08T08:14:29;8.30;;;7.00;;
12725;SDS011;6427;49.754;6.106;2023-09-08T08:16:59;8.43;;;7.37;;
12725;SDS011;6427;49.754;6.106;2023-09-08T08:19:27;10.38;;;7.78;;
12725;SDS011;6427;49.754;6.106;2023-09-08T08:21:55;7.77;;;6.87;;
12725;SDS011;6427;49.754;6.106;2023-09-08T08:24:23;9.50;;;7.30;;
12725;SDS011;6427;49.754;6.106;2023-09-08T08:26:52;8.13;;;7.33;;
12725;SDS011;6427;49.754;6.106;2023-09-08T08:29:34;9.30;;;7.10;;
12725;SDS011;6427;49.754;6.106;2023-09-08T08:32:17;12.33;;;7.30;;
12725;SDS011;6427;49.754;6.106;2023-09-08T08:34:50;10.47;;;7.17;;
12725;SDS011;6427;49.754;6.106;2023-09-08T08:37:39;9.33;;;6.60;;
12725;SDS011;6427;49.754;6.106;2023-09-08T08:40:12;11.10;;;7.10;;
12725;SDS011;6427;49.754;6.106;2023-09-08T08:42:40;11.87;;;7.07;;
12725;SDS011;6427;49.754;6.106;2023-09-08T08:45:08;10.87;;;6.70;;
12725;SDS011;6427;49.754;6.106;2023-09-08T08:47:38;9.53;;;7.17;;
12725;SDS011;6427;49.754;6.106;2023-09-08T08:50:09;9.20;;;7.10;;
12725;SDS011;6427;49.754;6.106;2023-09-08T08:52:39;8.10;;;7.10;;
12725;SDS011;6427;49.754;6.106;2023-09-08T08:55:07;8.33;;;6.30;;
12725;SDS011;6427;49.754;6.106;2023-09-08T08:57:38;8.60;;;6.33;;
12725;SDS011;6427;49.754;6.106;2023-09-08T09:00:07;9.67;;;6.13;;
12725;SDS011;6427;49.754;6.106;2023-09-08T09:02:40;8.00;;;5.87;;
12725;SDS011;6427;49.754;6.106;2023-09-08T09:05:15;10.03;;;6.67;;
12725;SDS011;6427;49.754;6.106;2023-09-08T09:07:47;8.77;;;5.97;;
12725;SDS011;6427;49.754;6.106;2023-09-08T09:10:11;8.00;;;6.00;;
12725;SDS011;6427;49.754;6.106;2023-09-08T09:12:43;12.27;;;6.60;;
12725;SDS011;6427;49.754;6.106;2023-09-08T09:15:12;7.17;;;5.60;;
12725;SDS011;6427;49.754;6.106;2023-09-08T09:17:48;7.63;;;5.77;;
12725;SDS011;6427;49.754;6.106;2023-09-08T09:20:18;9.33;;;6.23;;
12725;SDS011;6427;49.754;6.106;2023-09-08T09:22:47;9.33;;;6.17;;
12725;SDS011;6427;49.754;6.106;2023-09-08T09:27:58;8.43;;;6.00;;
12725;SDS011;6427;49.754;6.106;2023-09-08T09:30:25;8.70;;;6.50;;
12725;SDS011;6427;49.754;6.106;2023-09-08T09:33:03;9.03;;;6.60;;
12725;SDS011;6427;49.754;6.106;2023-09-08T09:35:48;10.80;;;6.03;;
12725;SDS011;6427;49.754;6.106;2023-09-08T09:38:21;8.07;;;6.13;;
12725;SDS011;6427;49.754;6.106;2023-09-08T09:40:54;9.82;;;6.62;;
12725;SDS011;6427;49.754;6.106;2023-09-08T09:43:23;9.93;;;6.00;;
12725;SDS011;6427;49.754;6.106;2023-09-08T09:45:51;7.03;;;6.20;;
12725;SDS011;6427;49.754;6.106;2023-09-08T09:48:20;9.30;;;6.30;;
12725;SDS011;6427;49.754;6.106;2023-09-08T09:50:50;5.93;;;5.33;;
12725;SDS011;6427;49.754;6.106;2023-09-08T09:53:23;7.93;;;5.40;;
12725;SDS011;6427;49.754;6.106;2023-09-08T09:55:52;7.80;;;5.77;;
12725;SDS011;6427;49.754;6.106;2023-09-08T09:58:24;8.10;;;5.77;;
12725;SDS011;6427;49.754;6.106;2023-09-08T10:00:48;10.03;;;6.20;;
12725;SDS011;6427;49.754;6.106;2023-09-08T10:03:16;9.10;;;6.35;;
12725;SDS011;6427;49.754;6.106;2023-09-08T10:05:46;16.37;;;6.57;;
12725;SDS011;6427;49.754;6.106;2023-09-08T10:08:14;9.60;;;5.97;;
12725;SDS011;6427;49.754;6.106;2023-09-08T10:10:42;8.37;;;6.07;;
12725;SDS011;6427;49.754;6.106;2023-09-08T10:13:18;8.67;;;5.60;;
12725;SDS011;6427;49.754;6.106;2023-09-08T10:16:00;9.52;;;6.10;;
12725;SDS011;6427;49.754;6.106;2023-09-08T10:18:33;7.70;;;6.03;;
12725;SDS011;6427;49.754;6.106;2023-09-08T10:21:03;8.27;;;6.20;;
12725;SDS011;6427;49.754;6.106;2023-09-08T10:23:40;9.73;;;6.60;;
12725;SDS011;6427;49.754;6.106;2023-09-08T10:26:10;7.47;;;5.90;;
12725;SDS011;6427;49.754;6.106;2023-09-08T10:28:37;9.50;;;6.50;;
12725;SDS011;6427;49.754;6.106;2023-09-08T10:31:08;8.03;;;6.40;;
12725;SDS011;6427;49.754;6.106;2023-09-08T10:33:36;8.93;;;6.60;;
12725;SDS011;6427;49.754;6.106;2023-09-08T10:36:04;10.15;;;6.70;;
12725;SDS011;6427;49.754;6.106;2023-09-08T10:38:32;8.95;;;6.70;;
12725;SDS011;6427;49.754;6.106;2023-09-08T10:41:46;11.17;;;6.43;;
12725;SDS011;6427;49.754;6.106;2023-09-08T10:43:54;6.70;;;6.00;;
12725;SDS011;6427;49.754;6.106;2023-09-08T10:46:28;10.43;;;6.50;;
12725;SDS011;6427;49.754;6.106;2023-09-08T10:49:02;9.27;;;6.30;;
12725;SDS011;6427;49.754;6.106;2023-09-08T10:51:34;10.63;;;6.10;;
12725;SDS011;6427;49.754;6.106;2023-09-08T10:54:06;7.80;;;6.03;;
12725;SDS011;6427;49.754;6.106;2023-09-08T10:59:34;9.47;;;6.37;;
12725;SDS011;6427;49.754;6.106;2023-09-08T11:02:10;9.07;;;5.83;;
12725;SDS011;6427;49.754;6.106;2023-09-08T11:04:37;7.20;;;5.90;;
12725;SDS011;6427;49.754;6.106;2023-09-08T11:07:10;8.20;;;5.60;;
12725;SDS011;6427;49.754;6.106;2023-09-08T11:09:41;8.17;;;6.17;;
12725;SDS011;6427;49.754;6.106;2023-09-08T11:12:08;9.00;;;6.03;;
12725;SDS011;6427;49.754;6.106;2023-09-08T11:14:43;7.70;;;5.80;;
12725;SDS011;6427;49.754;6.106;2023-09-08T11:17:09;10.27;;;6.47;;
12725;SDS011;6427;49.754;6.106;2023-09-08T11:19:47;8.77;;;5.83;;
12725;SDS011;6427;49.754;6.106;2023-09-08T11:22:10;7.40;;;5.93;;
12725;SDS011;6427;49.754;6.106;2023-09-08T11:24:38;8.85;;;6.18;;
12725;SDS011;6427;49.754;6.106;2023-09-08T11:27:05;8.97;;;5.77;;
12725;SDS011;6427;49.754;6.106;2023-09-08T11:29:33;8.00;;;5.57;;
12725;SDS011;6427;49.754;6.106;2023-09-08T11:32:02;6.97;;;5.57;;
12725;SDS011;6427;49.754;6.106;2023-09-08T11:34:30;7.57;;;5.60;;
12725;SDS011;6427;49.754;6.106;2023-09-08T11:36:57;9.63;;;5.33;;
12725;SDS011;6427;49.754;6.106;2023-09-08T11:39:26;7.07;;;5.13;;
12725;SDS011;6427;49.754;6.106;2023-09-08T11:41:54;10.77;;;5.10;;
12725;SDS011;6427;49.754;6.106;2023-09-08T11:44:21;7.80;;;5.13;;
12725;SDS011;6427;49.754;6.106;2023-09-08T11:46:49;8.70;;;5.93;;
12725;SDS011;6427;49.754;6.106;2023-09-08T11:49:19;9.70;;;5.37;;
12725;SDS011;6427;49.754;6.106;2023-09-08T11:51:46;7.78;;;5.72;;
12725;SDS011;6427;49.754;6.106;2023-09-08T11:54:14;7.77;;;4.97;;
12725;SDS011;6427;49.754;6.106;2023-09-08T11:56:41;6.83;;;5.17;;
12725;SDS011;6427;49.754;6.106;2023-09-08T11:59:09;6.57;;;4.70;;
12725;SDS011;6427;49.754;6.106;2023-09-08T12:01:37;6.77;;;5.13;;
12725;SDS011;6427;49.754;6.106;2023-09-08T12:04:04;7.10;;;5.03;;
12725;SDS011;6427;49.754;6.106;2023-09-08T12:06:32;6.43;;;4.83;;
12725;SDS011;6427;49.754;6.106;2023-09-08T12:09:02;6.77;;;4.97;;
12725;SDS011;6427;49.754;6.106;2023-09-08T12:11:33;7.70;;;5.07;;
12725;SDS011;6427;49.754;6.106;2023-09-08T12:14:01;8.37;;;5.20;;
12725;SDS011;6427;49.754;6.106;2023-09-08T12:16:29;15.73;;;4.80;;
12725;SDS011;6427;49.754;6.106;2023-09-08T12:18:58;5.87;;;4.70;;
12725;SDS011;6427;49.754;6.106;2023-09-08T12:21:25;9.50;;;5.10;;
12725;SDS011;6427;49.754;6.106;2023-09-08T12:23:54;6.10;;;4.83;;
12725;SDS011;6427;49.754;6.106;2023-09-08T12:26:24;6.93;;;4.57;;
12725;SDS011;6427;49.754;6.106;2023-09-08T12:28:53;5.70;;;4.60;;
12725;SDS011;6427;49.754;6.106;2023-09-08T12:31:20;6.60;;;4.53;;
12725;SDS011;6427;49.754;6.106;2023-09-08T12:33:48;6.80;;;4.70;;
12725;SDS011;6427;49.754;6.106;2023-09-08T12:36:17;6.77;;;4.83;;
12725;SDS011;6427;49.754;6.106;2023-09-08T12:38:47;8.03;;;4.37;;
12725;SDS011;6427;49.754;6.106;2023-09-08T12:41:15;6.05;;;4.47;;
12725;SDS011;6427;49.754;6.106;2023-09-08T12:43:42;7.63;;;4.50;;
12725;SDS011;6427;49.754;6.106;2023-09-08T12:46:10;6.45;;;4.70;;
12725;SDS011;6427;49.754;6.106;2023-09-08T12:48:37;4.97;;;4.43;;
12725;SDS011;6427;49.754;6.106;2023-09-08T12:51:06;6.23;;;4.40;;
12725;SDS011;6427;49.754;6.106;2023-09-08T12:53:33;7.53;;;3.90;;
12725;SDS011;6427;49.754;6.106;2023-09-08T12:56:01;5.68;;;4.37;;
12725;SDS011;6427;49.754;6.106;2023-09-08T12:58:29;7.20;;;4.63;;
12725;SDS011;6427;49.754;6.106;2023-09-08T13:00:56;6.17;;;4.13;;
12725;SDS011;6427;49.754;6.106;2023-09-08T13:03:24;6.40;;;4.33;;
12725;SDS011;6427;49.754;6.106;2023-09-08T13:05:51;5.83;;;4.20;;
12725;SDS011;6427;49.754;6.106;2023-09-08T13:08:19;9.00;;;4.47;;
12725;SDS011;6427;49.754;6.106;2023-09-08T13:10:47;5.63;;;4.23;;
12725;SDS011;6427;49.754;6.106;2023-09-08T13:13:14;5.03;;;4.37;;
12725;SDS011;6427;49.754;6.106;2023-09-08T13:15:43;7.43;;;4.57;;
12725;SDS011;6427;49.754;6.106;2023-09-08T13:18:10;7.00;;;4.30;;
12725;SDS011;6427;49.754;6.106;2023-09-08T13:20:38;5.90;;;4.20;;
12725;SDS011;6427;49.754;6.106;2023-09-08T13:23:05;4.90;;;3.50;;
12725;SDS011;6427;49.754;6.106;2023-09-08T13:25:33;8.20;;;4.47;;
12725;SDS011;6427;49.754;6.106;2023-09-08T13:28:01;5.45;;;4.20;;
12725;SDS011;6427;49.754;6.106;2023-09-08T13:30:29;7.33;;;3.80;;
12725;SDS011;6427;49.754;6.106;2023-09-08T13:32:56;5.80;;;4.30;;
12725;SDS011;6427;49.754;6.106;2023-09-08T13:35:24;6.17;;;4.47;;
12725;SDS011;6427;49.754;6.106;2023-09-08T13:37:52;6.70;;;4.40;;
12725;SDS011;6427;49.754;6.106;2023-09-08T13:40:19;10.53;;;3.87;;
12725;SDS011;6427;49.754;6.106;2023-09-08T13:42:47;9.27;;;4.13;;
12725;SDS011;6427;49.754;6.106;2023-09-08T13:45:14;7.17;;;3.80;;
12725;SDS011;6427;49.754;6.106;2023-09-08T13:47:43;5.70;;;4.03;;
12725;SDS011;6427;49.754;6.106;2023-09-08T13:50:10;6.00;;;4.03;;
12725;SDS011;6427;49.754;6.106;2023-09-08T13:52:39;5.07;;;4.13;;
12725;SDS011;6427;49.754;6.106;2023-09-08T13:55:06;6.70;;;3.83;;
12725;SDS011;6427;49.754;6.106;2023-09-08T13:57:34;5.03;;;4.20;;
12725;SDS011;6427;49.754;6.106;2023-09-08T14:00:02;6.20;;;4.00;;
12725;SDS011;6427;49.754;6.106;2023-09-08T14:02:29;9.93;;;4.13;;
12725;SDS011;6427;49.754;6.106;2023-09-08T14:04:57;4.87;;;4.37;;
12725;SDS011;6427;49.754;6.106;2023-09-08T14:07:25;7.17;;;4.30;;
12725;SDS011;6427;49.754;6.106;2023-09-08T14:09:53;6.00;;;4.25;;
12725;SDS011;6427;49.754;6.106;2023-09-08T14:12:21;7.67;;;4.40;;
12725;SDS011;6427;49.754;6.106;2023-09-08T14:14:49;7.18;;;4.40;;
12725;SDS011;6427;49.754;6.106;2023-09-08T14:17:17;8.67;;;4.40;;
12725;SDS011;6427;49.754;6.106;2023-09-08T14:19:45;4.30;;;3.90;;
12725;SDS011;6427;49.754;6.106;2023-09-08T14:22:13;6.23;;;4.17;;
12725;SDS011;6427;49.754;6.106;2023-09-08T14:24:40;6.63;;;4.33;;
12725;SDS011;6427;49.754;6.106;2023-09-08T14:27:08;4.50;;;4.10;;
12725;SDS011;6427;49.754;6.106;2023-09-08T14:29:36;8.67;;;4.50;;
12725;SDS011;6427;49.754;6.106;2023-09-08T14:32:04;8.37;;;4.40;;
12725;SDS011;6427;49.754;6.106;2023-09-08T14:34:31;8.18;;;4.60;;
12725;SDS011;6427;49.754;6.106;2023-09-08T14:36:59;6.80;;;4.10;;
12725;SDS011;6427;49.754;6.106;2023-09-08T14:39:26;4.83;;;4.40;;
12725;SDS011;6427;49.754;6.106;2023-09-08T14:41:54;6.47;;;4.60;;
12725;SDS011;6427;49.754;6.106;2023-09-08T14:44:24;5.33;;;4.77;;
12725;SDS011;6427;49.754;6.106;2023-09-08T14:46:51;6.37;;;4.37;;
12725;SDS011;6427;49.754;6.106;2023-09-08T14:49:20;6.37;;;4.30;;
12725;SDS011;6427;49.754;6.106;2023-09-08T14:51:47;6.40;;;4.73;;
12725;SDS011;6427;49.754;6.106;2023-09-08T14:54:15;7.90;;;4.93;;
12725;SDS011;6427;49.754;6.106;2023-09-08T14:56:43;8.23;;;4.60;;
12725;SDS011;6427;49.754;6.106;2023-09-08T14:59:12;6.50;;;4.67;;
12725;SDS011;6427;49.754;6.106;2023-09-08T15:01:43;5.57;;;4.63;;
12725;SDS011;6427;49.754;6.106;2023-09-08T15:04:11;8.33;;;4.83;;
12725;SDS011;6427;49.754;6.106;2023-09-08T15:06:39;6.13;;;4.53;;
12725;SDS011;6427;49.754;6.106;2023-09-08T15:09:06;7.00;;;4.50;;
12725;SDS011;6427;49.754;6.106;2023-09-08T15:11:34;5.47;;;4.70;;